sensor_id;sensor_type;location;lat;lon;timestamp;P1;durP1;ratioP1;P2;durP2;ratioP2
75854;SDS011;64502;59.976;30.316;2023-03-31T00:01:35;11.50;;;5.47;;
75854;SDS011;64502;59.976;30.316;2023-03-31T00:04:09;12.05;;;5.75;;
75854;SDS011;64502;59.976;30.316;2023-03-31T00:06:37;11.20;;;5.03;;
75854;SDS011;64502;59.976;30.316;2023-03-31T00:09:14;10.98;;;5.53;;
75854;SDS011;64502;59.976;30.316;2023-03-31T00:11:43;12.65;;;5.70;;
75854;SDS011;64502;59.976;30.316;2023-03-31T00:14:09;12.30;;;6.05;;
75854;SDS011;64502;59.976;30.316;2023-03-31T00:16:36;11.98;;;4.82;;
75854;SDS011;64502;59.976;30.316;2023-03-31T00:19:03;10.32;;;5.75;;
75854;SDS011;64502;59.976;30.316;2023-03-31T00:21:29;10.77;;;5.72;;
75854;SDS011;64502;59.976;30.316;2023-03-31T00:23:59;12.07;;;5.75;;
75854;SDS011;64502;59.976;30.316;2023-03-31T00:26:26;13.45;;;5.75;;
75854;SDS011;64502;59.976;30.316;2023-03-31T00:28:53;10.90;;;5.95;;
75854;SDS011;64502;59.976;30.316;2023-03-31T00:31:19;10.30;;;5.18;;
75854;SDS011;64502;59.976;30.316;2023-03-31T00:33:46;11.57;;;5.78;;
75854;SDS011;64502;59.976;30.316;2023-03-31T00:36:12;9.70;;;5.40;;
75854;SDS011;64502;59.976;30.316;2023-03-31T00:38:37;12.10;;;5.75;;
75854;SDS011;64502;59.976;30.316;2023-03-31T00:41:03;11.48;;;5.20;;
75854;SDS011;64502;59.976;30.316;2023-03-31T00:46:06;12.25;;;5.68;;
75854;SDS011;64502;59.976;30.316;2023-03-31T00:48:37;13.32;;;5.93;;
75854;SDS011;64502;59.976;30.316;2023-03-31T00:51:05;9.85;;;4.88;;
75854;SDS011;64502;59.976;30.316;2023-03-31T00:53:31;10.30;;;5.13;;
75854;SDS011;64502;59.976;30.316;2023-03-31T00:56:01;11.88;;;5.95;;
75854;SDS011;64502;59.976;30.316;2023-03-31T00:58:36;10.20;;;5.05;;
75854;SDS011;64502;59.976;30.316;2023-03-31T01:01:07;15.02;;;6.15;;
75854;SDS011;64502;59.976;30.316;2023-03-31T01:03:38;10.82;;;5.97;;
75854;SDS011;64502;59.976;30.316;2023-03-31T01:06:06;10.32;;;4.70;;
75854;SDS011;64502;59.976;30.316;2023-03-31T01:08:34;10.63;;;5.28;;
75854;SDS011;64502;59.976;30.316;2023-03-31T01:11:03;11.65;;;5.97;;
75854;SDS011;64502;59.976;30.316;2023-03-31T01:13:31;8.98;;;4.60;;
75854;SDS011;64502;59.976;30.316;2023-03-31T01:16:00;10.85;;;5.28;;
75854;SDS011;64502;59.976;30.316;2023-03-31T01:18:26;12.32;;;5.57;;
75854;SDS011;64502;59.976;30.316;2023-03-31T01:31:35;11.52;;;5.45;;
75854;SDS011;64502;59.976;30.316;2023-03-31T01:42:41;11.50;;;6.03;;
75854;SDS011;64502;59.976;30.316;2023-03-31T01:47:56;12.75;;;5.85;;
75854;SDS011;64502;59.976;30.316;2023-03-31T01:50:28;15.98;;;7.88;;
75854;SDS011;64502;59.976;30.316;2023-03-31T01:53:16;11.68;;;5.97;;
75854;SDS011;64502;59.976;30.316;2023-03-31T01:56:09;14.90;;;6.20;;
75854;SDS011;64502;59.976;30.316;2023-03-31T01:58:51;16.20;;;7.07;;
75854;SDS011;64502;59.976;30.316;2023-03-31T02:01:23;12.23;;;6.15;;
75854;SDS011;64502;59.976;30.316;2023-03-31T02:04:23;14.23;;;6.72;;
75854;SDS011;64502;59.976;30.316;2023-03-31T02:06:53;14.27;;;7.25;;
75854;SDS011;64502;59.976;30.316;2023-03-31T02:09:25;14.25;;;7.60;;
75854;SDS011;64502;59.976;30.316;2023-03-31T02:11:56;18.85;;;7.32;;
75854;SDS011;64502;59.976;30.316;2023-03-31T02:14:25;12.95;;;6.43;;
75854;SDS011;64502;59.976;30.316;2023-03-31T02:16:56;15.88;;;7.53;;
75854;SDS011;64502;59.976;30.316;2023-03-31T02:19:27;15.27;;;7.70;;
75854;SDS011;64502;59.976;30.316;2023-03-31T02:21:57;13.45;;;6.63;;
75854;SDS011;64502;59.976;30.316;2023-03-31T02:24:24;16.20;;;8.38;;
75854;SDS011;64502;59.976;30.316;2023-03-31T02:27:01;15.00;;;7.38;;
75854;SDS011;64502;59.976;30.316;2023-03-31T02:29:48;13.70;;;8.15;;
75854;SDS011;64502;59.976;30.316;2023-03-31T02:34:45;17.85;;;8.30;;
75854;SDS011;64502;59.976;30.316;2023-03-31T02:37:11;19.35;;;8.57;;
75854;SDS011;64502;59.976;30.316;2023-03-31T02:39:37;17.92;;;8.73;;
75854;SDS011;64502;59.976;30.316;2023-03-31T02:42:05;15.93;;;7.70;;
75854;SDS011;64502;59.976;30.316;2023-03-31T02:44:32;15.07;;;6.82;;
75854;SDS011;64502;59.976;30.316;2023-03-31T02:46:59;18.55;;;8.30;;
75854;SDS011;64502;59.976;30.316;2023-03-31T02:49:25;15.65;;;7.68;;
75854;SDS011;64502;59.976;30.316;2023-03-31T02:52:00;14.77;;;6.88;;
75854;SDS011;64502;59.976;30.316;2023-03-31T02:54:58;14.30;;;7.05;;
75854;SDS011;64502;59.976;30.316;2023-03-31T03:00:46;15.80;;;6.63;;
75854;SDS011;64502;59.976;30.316;2023-03-31T03:09:44;15.77;;;7.43;;
75854;SDS011;64502;59.976;30.316;2023-03-31T03:15:03;20.40;;;9.10;;
75854;SDS011;64502;59.976;30.316;2023-03-31T03:17:34;19.60;;;8.65;;
75854;SDS011;64502;59.976;30.316;2023-03-31T03:20:04;20.65;;;10.90;;
75854;SDS011;64502;59.976;30.316;2023-03-31T03:22:34;21.75;;;10.63;;
75854;SDS011;64502;59.976;30.316;2023-03-31T03:25:01;25.08;;;10.85;;
75854;SDS011;64502;59.976;30.316;2023-03-31T03:27:27;25.38;;;11.68;;
75854;SDS011;64502;59.976;30.316;2023-03-31T03:29:53;24.80;;;11.25;;
75854;SDS011;64502;59.976;30.316;2023-03-31T03:32:18;23.17;;;12.20;;
75854;SDS011;64502;59.976;30.316;2023-03-31T03:34:44;26.88;;;12.68;;
75854;SDS011;64502;59.976;30.316;2023-03-31T03:37:09;25.80;;;12.13;;
75854;SDS011;64502;59.976;30.316;2023-03-31T03:39:34;24.73;;;12.13;;
75854;SDS011;64502;59.976;30.316;2023-03-31T03:42:00;26.48;;;12.52;;
75854;SDS011;64502;59.976;30.316;2023-03-31T03:44:26;24.83;;;12.68;;
75854;SDS011;64502;59.976;30.316;2023-03-31T03:46:52;22.58;;;10.98;;
75854;SDS011;64502;59.976;30.316;2023-03-31T03:49:17;25.95;;;11.25;;
75854;SDS011;64502;59.976;30.316;2023-03-31T03:51:42;26.30;;;11.43;;
75854;SDS011;64502;59.976;30.316;2023-03-31T03:54:08;21.17;;;10.30;;
75854;SDS011;64502;59.976;30.316;2023-03-31T03:56:33;21.70;;;11.10;;
75854;SDS011;64502;59.976;30.316;2023-03-31T03:58:59;25.25;;;11.43;;
75854;SDS011;64502;59.976;30.316;2023-03-31T04:01:25;20.65;;;10.52;;
75854;SDS011;64502;59.976;30.316;2023-03-31T04:03:50;24.10;;;11.23;;
75854;SDS011;64502;59.976;30.316;2023-03-31T04:06:16;20.30;;;10.30;;
75854;SDS011;64502;59.976;30.316;2023-03-31T04:08:41;21.92;;;10.77;;
75854;SDS011;64502;59.976;30.316;2023-03-31T04:11:14;21.05;;;10.73;;
75854;SDS011;64502;59.976;30.316;2023-03-31T04:13:42;24.60;;;9.70;;
75854;SDS011;64502;59.976;30.316;2023-03-31T04:16:08;20.52;;;9.20;;
75854;SDS011;64502;59.976;30.316;2023-03-31T04:18:34;22.58;;;10.43;;
75854;SDS011;64502;59.976;30.316;2023-03-31T04:21:01;21.33;;;10.23;;
75854;SDS011;64502;59.976;30.316;2023-03-31T04:23:34;21.48;;;10.57;;
75854;SDS011;64502;59.976;30.316;2023-03-31T04:26:07;18.35;;;9.15;;
75854;SDS011;64502;59.976;30.316;2023-03-31T04:28:34;20.52;;;9.77;;
75854;SDS011;64502;59.976;30.316;2023-03-31T04:31:01;20.38;;;9.88;;
75854;SDS011;64502;59.976;30.316;2023-03-31T04:33:27;20.83;;;9.98;;
75854;SDS011;64502;59.976;30.316;2023-03-31T04:35:53;24.08;;;9.27;;
75854;SDS011;64502;59.976;30.316;2023-03-31T04:38:19;23.73;;;9.35;;
75854;SDS011;64502;59.976;30.316;2023-03-31T04:40:48;22.77;;;11.32;;
75854;SDS011;64502;59.976;30.316;2023-03-31T04:43:15;22.65;;;10.55;;
75854;SDS011;64502;59.976;30.316;2023-03-31T04:45:41;24.58;;;10.93;;
75854;SDS011;64502;59.976;30.316;2023-03-31T04:48:07;22.13;;;11.23;;
75854;SDS011;64502;59.976;30.316;2023-03-31T04:50:33;20.83;;;10.55;;
75854;SDS011;64502;59.976;30.316;2023-03-31T04:52:59;22.70;;;10.38;;
75854;SDS011;64502;59.976;30.316;2023-03-31T04:55:24;25.75;;;10.23;;
75854;SDS011;64502;59.976;30.316;2023-03-31T04:57:51;23.05;;;10.75;;
75854;SDS011;64502;59.976;30.316;2023-03-31T05:00:16;21.65;;;10.15;;
75854;SDS011;64502;59.976;30.316;2023-03-31T05:02:43;20.83;;;9.95;;
75854;SDS011;64502;59.976;30.316;2023-03-31T05:05:08;23.75;;;11.20;;
75854;SDS011;64502;59.976;30.316;2023-03-31T05:07:36;23.85;;;10.73;;
75854;SDS011;64502;59.976;30.316;2023-03-31T05:10:01;24.30;;;11.32;;
75854;SDS011;64502;59.976;30.316;2023-03-31T05:12:27;29.17;;;11.00;;
75854;SDS011;64502;59.976;30.316;2023-03-31T05:14:53;22.98;;;10.63;;
75854;SDS011;64502;59.976;30.316;2023-03-31T05:17:18;24.65;;;10.25;;
75854;SDS011;64502;59.976;30.316;2023-03-31T05:19:44;24.65;;;11.55;;
75854;SDS011;64502;59.976;30.316;2023-03-31T05:22:10;23.48;;;10.75;;
75854;SDS011;64502;59.976;30.316;2023-03-31T05:24:35;25.30;;;11.77;;
75854;SDS011;64502;59.976;30.316;2023-03-31T05:27:01;24.02;;;12.25;;
75854;SDS011;64502;59.976;30.316;2023-03-31T05:29:26;27.52;;;12.88;;
75854;SDS011;64502;59.976;30.316;2023-03-31T05:31:52;24.05;;;12.50;;
75854;SDS011;64502;59.976;30.316;2023-03-31T05:34:17;27.83;;;12.55;;
75854;SDS011;64502;59.976;30.316;2023-03-31T05:36:43;24.30;;;11.60;;
75854;SDS011;64502;59.976;30.316;2023-03-31T05:39:09;26.67;;;11.82;;
75854;SDS011;64502;59.976;30.316;2023-03-31T05:41:35;23.35;;;11.90;;
75854;SDS011;64502;59.976;30.316;2023-03-31T05:44:00;24.38;;;12.38;;
75854;SDS011;64502;59.976;30.316;2023-03-31T05:46:26;23.77;;;10.55;;
75854;SDS011;64502;59.976;30.316;2023-03-31T05:48:52;29.73;;;12.75;;
75854;SDS011;64502;59.976;30.316;2023-03-31T05:51:17;26.58;;;12.40;;
75854;SDS011;64502;59.976;30.316;2023-03-31T05:53:43;24.80;;;12.38;;
75854;SDS011;64502;59.976;30.316;2023-03-31T05:56:08;26.55;;;11.57;;
75854;SDS011;64502;59.976;30.316;2023-03-31T05:58:35;22.55;;;11.18;;
75854;SDS011;64502;59.976;30.316;2023-03-31T06:01:05;28.35;;;12.82;;
75854;SDS011;64502;59.976;30.316;2023-03-31T06:03:43;24.05;;;11.65;;
75854;SDS011;64502;59.976;30.316;2023-03-31T06:06:09;23.35;;;11.73;;
75854;SDS011;64502;59.976;30.316;2023-03-31T06:08:39;27.23;;;11.82;;
75854;SDS011;64502;59.976;30.316;2023-03-31T06:11:09;22.73;;;10.38;;
75854;SDS011;64502;59.976;30.316;2023-03-31T06:13:36;24.58;;;11.63;;
75854;SDS011;64502;59.976;30.316;2023-03-31T06:16:03;27.02;;;11.45;;
75854;SDS011;64502;59.976;30.316;2023-03-31T06:18:30;29.92;;;12.88;;
75854;SDS011;64502;59.976;30.316;2023-03-31T06:20:57;25.92;;;10.95;;
75854;SDS011;64502;59.976;30.316;2023-03-31T06:23:23;30.23;;;12.65;;
75854;SDS011;64502;59.976;30.316;2023-03-31T06:25:49;25.95;;;12.13;;
75854;SDS011;64502;59.976;30.316;2023-03-31T06:28:15;26.40;;;12.95;;
75854;SDS011;64502;59.976;30.316;2023-03-31T06:30:41;24.95;;;11.38;;
75854;SDS011;64502;59.976;30.316;2023-03-31T06:33:06;26.20;;;11.80;;
75854;SDS011;64502;59.976;30.316;2023-03-31T06:35:32;30.98;;;14.02;;
75854;SDS011;64502;59.976;30.316;2023-03-31T06:37:58;27.95;;;12.80;;
75854;SDS011;64502;59.976;30.316;2023-03-31T06:40:23;32.95;;;13.18;;
75854;SDS011;64502;59.976;30.316;2023-03-31T06:42:49;30.98;;;13.50;;
75854;SDS011;64502;59.976;30.316;2023-03-31T06:45:15;27.77;;;12.23;;
75854;SDS011;64502;59.976;30.316;2023-03-31T06:47:40;27.73;;;12.85;;
75854;SDS011;64502;59.976;30.316;2023-03-31T06:50:07;26.33;;;12.85;;
75854;SDS011;64502;59.976;30.316;2023-03-31T06:52:33;28.52;;;13.60;;
75854;SDS011;64502;59.976;30.316;2023-03-31T06:55:00;28.40;;;12.57;;
75854;SDS011;64502;59.976;30.316;2023-03-31T06:57:26;29.90;;;14.20;;
75854;SDS011;64502;59.976;30.316;2023-03-31T06:59:52;33.45;;;14.35;;
75854;SDS011;64502;59.976;30.316;2023-03-31T07:02:17;33.92;;;13.93;;
75854;SDS011;64502;59.976;30.316;2023-03-31T07:04:43;34.47;;;15.48;;
75854;SDS011;64502;59.976;30.316;2023-03-31T07:07:09;30.00;;;13.40;;
75854;SDS011;64502;59.976;30.316;2023-03-31T07:09:35;30.17;;;13.43;;
75854;SDS011;64502;59.976;30.316;2023-03-31T07:12:00;29.60;;;13.98;;
75854;SDS011;64502;59.976;30.316;2023-03-31T07:14:29;31.98;;;14.77;;
75854;SDS011;64502;59.976;30.316;2023-03-31T07:16:55;27.73;;;13.18;;
75854;SDS011;64502;59.976;30.316;2023-03-31T07:19:21;26.27;;;13.35;;
75854;SDS011;64502;59.976;30.316;2023-03-31T07:21:47;28.90;;;12.82;;
75854;SDS011;64502;59.976;30.316;2023-03-31T07:24:13;25.52;;;13.25;;
75854;SDS011;64502;59.976;30.316;2023-03-31T07:26:38;25.85;;;13.52;;
75854;SDS011;64502;59.976;30.316;2023-03-31T07:29:04;21.83;;;11.15;;
75854;SDS011;64502;59.976;30.316;2023-03-31T07:31:30;22.70;;;10.57;;
75854;SDS011;64502;59.976;30.316;2023-03-31T07:33:56;26.77;;;12.88;;
75854;SDS011;64502;59.976;30.316;2023-03-31T07:36:21;27.42;;;11.23;;
75854;SDS011;64502;59.976;30.316;2023-03-31T07:38:47;31.15;;;13.60;;
75854;SDS011;64502;59.976;30.316;2023-03-31T07:41:14;27.80;;;14.68;;
75854;SDS011;64502;59.976;30.316;2023-03-31T07:43:44;31.00;;;15.07;;
75854;SDS011;64502;59.976;30.316;2023-03-31T07:46:20;28.80;;;13.45;;
75854;SDS011;64502;59.976;30.316;2023-03-31T07:48:47;24.88;;;12.95;;
75854;SDS011;64502;59.976;30.316;2023-03-31T07:51:14;34.17;;;14.40;;
75854;SDS011;64502;59.976;30.316;2023-03-31T07:53:41;30.85;;;13.90;;
75854;SDS011;64502;59.976;30.316;2023-03-31T07:56:07;26.92;;;14.00;;
75854;SDS011;64502;59.976;30.316;2023-03-31T07:58:33;26.33;;;11.55;;
75854;SDS011;64502;59.976;30.316;2023-03-31T08:00:58;26.33;;;14.20;;
75854;SDS011;64502;59.976;30.316;2023-03-31T08:03:27;26.85;;;13.27;;
75854;SDS011;64502;59.976;30.316;2023-03-31T08:05:53;26.98;;;12.65;;
75854;SDS011;64502;59.976;30.316;2023-03-31T08:08:19;23.38;;;12.55;;
75854;SDS011;64502;59.976;30.316;2023-03-31T08:10:45;26.63;;;12.65;;
75854;SDS011;64502;59.976;30.316;2023-03-31T08:13:11;24.70;;;12.25;;
75854;SDS011;64502;59.976;30.316;2023-03-31T08:15:37;28.80;;;11.88;;
75854;SDS011;64502;59.976;30.316;2023-03-31T08:18:03;22.80;;;11.57;;
75854;SDS011;64502;59.976;30.316;2023-03-31T08:20:29;21.85;;;11.75;;
75854;SDS011;64502;59.976;30.316;2023-03-31T08:22:54;22.35;;;11.13;;
75854;SDS011;64502;59.976;30.316;2023-03-31T08:25:20;25.38;;;12.73;;
75854;SDS011;64502;59.976;30.316;2023-03-31T08:27:46;26.00;;;12.75;;
75854;SDS011;64502;59.976;30.316;2023-03-31T08:30:15;24.30;;;12.63;;
75854;SDS011;64502;59.976;30.316;2023-03-31T08:32:42;25.23;;;13.23;;
75854;SDS011;64502;59.976;30.316;2023-03-31T08:35:08;24.02;;;13.23;;
75854;SDS011;64502;59.976;30.316;2023-03-31T08:37:35;25.50;;;13.25;;
75854;SDS011;64502;59.976;30.316;2023-03-31T08:40:02;23.52;;;12.65;;
75854;SDS011;64502;59.976;30.316;2023-03-31T08:42:40;23.88;;;11.40;;
75854;SDS011;64502;59.976;30.316;2023-03-31T08:47:57;19.75;;;10.30;;
75854;SDS011;64502;59.976;30.316;2023-03-31T08:50:28;22.65;;;10.55;;
75854;SDS011;64502;59.976;30.316;2023-03-31T08:55:35;20.15;;;10.55;;
75854;SDS011;64502;59.976;30.316;2023-03-31T08:58:13;23.38;;;10.88;;
75854;SDS011;64502;59.976;30.316;2023-03-31T09:00:55;18.73;;;9.98;;
75854;SDS011;64502;59.976;30.316;2023-03-31T09:09:14;20.52;;;9.05;;
75854;SDS011;64502;59.976;30.316;2023-03-31T09:11:50;21.20;;;9.50;;
75854;SDS011;64502;59.976;30.316;2023-03-31T09:17:41;17.55;;;9.10;;
75854;SDS011;64502;59.976;30.316;2023-03-31T09:22:43;19.27;;;9.48;;
75854;SDS011;64502;59.976;30.316;2023-03-31T09:28:01;17.77;;;8.77;;
75854;SDS011;64502;59.976;30.316;2023-03-31T09:30:31;17.40;;;9.07;;
75854;SDS011;64502;59.976;30.316;2023-03-31T09:33:10;19.10;;;10.45;;
75854;SDS011;64502;59.976;30.316;2023-03-31T09:35:39;17.33;;;9.40;;
75854;SDS011;64502;59.976;30.316;2023-03-31T09:38:05;19.30;;;8.88;;
75854;SDS011;64502;59.976;30.316;2023-03-31T09:40:31;16.88;;;9.50;;
75854;SDS011;64502;59.976;30.316;2023-03-31T09:43:03;17.35;;;8.50;;
75854;SDS011;64502;59.976;30.316;2023-03-31T09:45:35;14.55;;;7.72;;
75854;SDS011;64502;59.976;30.316;2023-03-31T09:48:01;17.08;;;9.10;;
75854;SDS011;64502;59.976;30.316;2023-03-31T09:53:36;18.15;;;7.60;;
75854;SDS011;64502;59.976;30.316;2023-03-31T09:56:05;18.27;;;8.90;;
75854;SDS011;64502;59.976;30.316;2023-03-31T09:58:39;19.33;;;9.07;;
75854;SDS011;64502;59.976;30.316;2023-03-31T10:01:06;16.48;;;8.80;;
75854;SDS011;64502;59.976;30.316;2023-03-31T10:03:40;18.67;;;8.48;;
75854;SDS011;64502;59.976;30.316;2023-03-31T10:06:18;15.80;;;8.27;;
75854;SDS011;64502;59.976;30.316;2023-03-31T10:11:10;14.52;;;6.80;;
75854;SDS011;64502;59.976;30.316;2023-03-31T10:13:58;14.15;;;7.20;;
75854;SDS011;64502;59.976;30.316;2023-03-31T10:16:52;16.33;;;8.45;;
75854;SDS011;64502;59.976;30.316;2023-03-31T10:19:25;13.05;;;6.90;;
75854;SDS011;64502;59.976;30.316;2023-03-31T10:22:00;14.32;;;7.30;;
75854;SDS011;64502;59.976;30.316;2023-03-31T10:24:39;12.23;;;7.20;;
75854;SDS011;64502;59.976;30.316;2023-03-31T10:27:25;12.38;;;7.47;;
75854;SDS011;64502;59.976;30.316;2023-03-31T10:29:57;16.55;;;7.38;;
75854;SDS011;64502;59.976;30.316;2023-03-31T10:32:33;13.90;;;7.13;;
75854;SDS011;64502;59.976;30.316;2023-03-31T10:35:07;14.52;;;7.50;;
75854;SDS011;64502;59.976;30.316;2023-03-31T10:37:47;13.13;;;7.72;;
75854;SDS011;64502;59.976;30.316;2023-03-31T10:40:22;13.57;;;8.07;;
75854;SDS011;64502;59.976;30.316;2023-03-31T10:42:58;14.32;;;7.03;;
75854;SDS011;64502;59.976;30.316;2023-03-31T10:48:17;17.00;;;6.47;;
75854;SDS011;64502;59.976;30.316;2023-03-31T10:50:48;14.45;;;6.78;;
75854;SDS011;64502;59.976;30.316;2023-03-31T10:53:14;11.80;;;6.95;;
75854;SDS011;64502;59.976;30.316;2023-03-31T11:04:34;16.58;;;6.82;;
75854;SDS011;64502;59.976;30.316;2023-03-31T11:07:12;13.85;;;7.35;;
75854;SDS011;64502;59.976;30.316;2023-03-31T11:42:07;13.43;;;6.80;;
75854;SDS011;64502;59.976;30.316;2023-03-31T11:44:44;17.33;;;8.27;;
75854;SDS011;64502;59.976;30.316;2023-03-31T11:47:27;14.02;;;6.18;;
75854;SDS011;64502;59.976;30.316;2023-03-31T11:50:02;12.20;;;6.88;;
75854;SDS011;64502;59.976;30.316;2023-03-31T11:52:36;13.73;;;7.60;;
75854;SDS011;64502;59.976;30.316;2023-03-31T11:55:18;12.27;;;6.53;;
75854;SDS011;64502;59.976;30.316;2023-03-31T11:57:49;12.23;;;6.43;;
75854;SDS011;64502;59.976;30.316;2023-03-31T12:06:10;13.65;;;6.82;;
75854;SDS011;64502;59.976;30.316;2023-03-31T12:11:47;15.95;;;6.75;;
75854;SDS011;64502;59.976;30.316;2023-03-31T12:14:40;12.77;;;7.45;;
75854;SDS011;64502;59.976;30.316;2023-03-31T12:17:16;14.00;;;6.90;;
75854;SDS011;64502;59.976;30.316;2023-03-31T12:22:16;14.90;;;7.30;;
75854;SDS011;64502;59.976;30.316;2023-03-31T12:24:46;14.85;;;7.80;;
75854;SDS011;64502;59.976;30.316;2023-03-31T12:30:02;14.90;;;6.45;;
75854;SDS011;64502;59.976;30.316;2023-03-31T12:32:41;13.75;;;5.18;;
75854;SDS011;64502;59.976;30.316;2023-03-31T12:37:58;12.68;;;6.07;;
75854;SDS011;64502;59.976;30.316;2023-03-31T12:46:30;12.23;;;6.63;;
75854;SDS011;64502;59.976;30.316;2023-03-31T12:52:15;14.52;;;6.88;;
75854;SDS011;64502;59.976;30.316;2023-03-31T13:02:45;13.27;;;6.20;;
75854;SDS011;64502;59.976;30.316;2023-03-31T13:08:36;15.57;;;6.57;;
75854;SDS011;64502;59.976;30.316;2023-03-31T13:11:12;14.98;;;6.93;;
75854;SDS011;64502;59.976;30.316;2023-03-31T13:16:31;17.38;;;8.13;;
75854;SDS011;64502;59.976;30.316;2023-03-31T13:18:58;18.77;;;8.27;;
75854;SDS011;64502;59.976;30.316;2023-03-31T13:21:24;18.13;;;7.72;;
75854;SDS011;64502;59.976;30.316;2023-03-31T13:23:51;18.88;;;7.55;;
75854;SDS011;64502;59.976;30.316;2023-03-31T13:26:39;18.60;;;8.80;;
75854;SDS011;64502;59.976;30.316;2023-03-31T13:37:40;13.20;;;6.65;;
75854;SDS011;64502;59.976;30.316;2023-03-31T14:05:44;12.13;;;5.57;;
75854;SDS011;64502;59.976;30.316;2023-03-31T14:10:57;13.30;;;5.50;;
75854;SDS011;64502;59.976;30.316;2023-03-31T14:13:41;16.23;;;6.25;;
75854;SDS011;64502;59.976;30.316;2023-03-31T14:16:06;12.93;;;5.72;;
75854;SDS011;64502;59.976;30.316;2023-03-31T14:18:34;11.65;;;6.13;;
75854;SDS011;64502;59.976;30.316;2023-03-31T14:21:23;12.38;;;5.78;;
75854;SDS011;64502;59.976;30.316;2023-03-31T14:27:14;13.75;;;5.93;;
75854;SDS011;64502;59.976;30.316;2023-03-31T14:37:39;8.32;;;4.68;;
75854;SDS011;64502;59.976;30.316;2023-03-31T14:40:05;12.35;;;4.20;;
75854;SDS011;64502;59.976;30.316;2023-03-31T14:42:37;11.80;;;4.63;;
75854;SDS011;64502;59.976;30.316;2023-03-31T14:45:15;9.63;;;4.95;;
75854;SDS011;64502;59.976;30.316;2023-03-31T14:47:54;10.57;;;4.65;;
75854;SDS011;64502;59.976;30.316;2023-03-31T14:50:22;9.23;;;4.38;;
75854;SDS011;64502;59.976;30.316;2023-03-31T14:52:53;11.32;;;4.47;;
75854;SDS011;64502;59.976;30.316;2023-03-31T14:55:23;12.32;;;4.82;;
75854;SDS011;64502;59.976;30.316;2023-03-31T14:57:52;11.07;;;4.55;;
75854;SDS011;64502;59.976;30.316;2023-03-31T15:00:24;12.45;;;5.05;;
75854;SDS011;64502;59.976;30.316;2023-03-31T15:02:52;10.40;;;5.10;;
75854;SDS011;64502;59.976;30.316;2023-03-31T15:05:30;13.65;;;5.15;;
75854;SDS011;64502;59.976;30.316;2023-03-31T15:07:58;12.90;;;5.15;;
75854;SDS011;64502;59.976;30.316;2023-03-31T15:10:27;12.35;;;5.40;;
75854;SDS011;64502;59.976;30.316;2023-03-31T15:13:00;11.60;;;4.88;;
75854;SDS011;64502;59.976;30.316;2023-03-31T15:15:31;11.43;;;4.70;;
75854;SDS011;64502;59.976;30.316;2023-03-31T15:17:57;12.45;;;5.55;;
75854;SDS011;64502;59.976;30.316;2023-03-31T15:20:28;11.93;;;4.95;;
75854;SDS011;64502;59.976;30.316;2023-03-31T15:23:03;11.23;;;4.55;;
75854;SDS011;64502;59.976;30.316;2023-03-31T15:25:42;10.07;;;4.97;;
75854;SDS011;64502;59.976;30.316;2023-03-31T15:28:12;13.23;;;4.55;;
75854;SDS011;64502;59.976;30.316;2023-03-31T15:30:41;10.30;;;4.90;;
75854;SDS011;64502;59.976;30.316;2023-03-31T15:33:07;12.38;;;5.45;;
75854;SDS011;64502;59.976;30.316;2023-03-31T15:35:44;10.40;;;5.00;;
75854;SDS011;64502;59.976;30.316;2023-03-31T15:38:10;10.43;;;4.70;;
75854;SDS011;64502;59.976;30.316;2023-03-31T15:40:40;10.23;;;4.75;;
75854;SDS011;64502;59.976;30.316;2023-03-31T15:43:17;9.93;;;5.03;;
75854;SDS011;64502;59.976;30.316;2023-03-31T15:45:53;12.40;;;5.32;;
75854;SDS011;64502;59.976;30.316;2023-03-31T15:48:21;12.32;;;5.07;;
75854;SDS011;64502;59.976;30.316;2023-03-31T15:50:57;8.82;;;4.47;;
75854;SDS011;64502;59.976;30.316;2023-03-31T15:56:02;10.77;;;5.25;;
75854;SDS011;64502;59.976;30.316;2023-03-31T16:01:21;10.70;;;4.85;;
75854;SDS011;64502;59.976;30.316;2023-03-31T16:03:51;13.88;;;5.03;;
75854;SDS011;64502;59.976;30.316;2023-03-31T16:06:33;11.55;;;5.10;;
75854;SDS011;64502;59.976;30.316;2023-03-31T16:09:27;10.30;;;4.93;;
75854;SDS011;64502;59.976;30.316;2023-03-31T16:12:09;11.60;;;5.68;;
75854;SDS011;64502;59.976;30.316;2023-03-31T16:14:59;12.20;;;5.13;;
75854;SDS011;64502;59.976;30.316;2023-03-31T16:17:39;10.60;;;4.88;;
75854;SDS011;64502;59.976;30.316;2023-03-31T16:20:17;11.93;;;5.10;;
75854;SDS011;64502;59.976;30.316;2023-03-31T16:22:53;11.38;;;5.63;;
75854;SDS011;64502;59.976;30.316;2023-03-31T16:25:23;14.75;;;5.20;;
75854;SDS011;64502;59.976;30.316;2023-03-31T16:27:53;11.13;;;4.20;;
75854;SDS011;64502;59.976;30.316;2023-03-31T16:30:21;10.35;;;4.82;;
75854;SDS011;64502;59.976;30.316;2023-03-31T16:33:05;11.27;;;4.70;;
75854;SDS011;64502;59.976;30.316;2023-03-31T16:35:44;14.38;;;5.28;;
75854;SDS011;64502;59.976;30.316;2023-03-31T16:38:24;13.15;;;5.07;;
75854;SDS011;64502;59.976;30.316;2023-03-31T16:40:51;13.75;;;5.15;;
75854;SDS011;64502;59.976;30.316;2023-03-31T16:43:22;11.73;;;4.88;;
75854;SDS011;64502;59.976;30.316;2023-03-31T16:45:50;13.93;;;5.53;;
75854;SDS011;64502;59.976;30.316;2023-03-31T16:48:17;11.68;;;5.85;;
75854;SDS011;64502;59.976;30.316;2023-03-31T16:50:45;11.02;;;5.78;;
75854;SDS011;64502;59.976;30.316;2023-03-31T16:53:12;12.07;;;6.10;;
75854;SDS011;64502;59.976;30.316;2023-03-31T16:55:39;12.73;;;6.68;;
75854;SDS011;64502;59.976;30.316;2023-03-31T16:58:05;12.10;;;5.32;;
75854;SDS011;64502;59.976;30.316;2023-03-31T17:00:32;13.15;;;6.00;;
75854;SDS011;64502;59.976;30.316;2023-03-31T17:03:01;12.75;;;5.13;;
75854;SDS011;64502;59.976;30.316;2023-03-31T17:05:28;10.25;;;5.35;;
75854;SDS011;64502;59.976;30.316;2023-03-31T17:07:58;14.00;;;6.60;;
75854;SDS011;64502;59.976;30.316;2023-03-31T17:10:24;10.68;;;5.55;;
75854;SDS011;64502;59.976;30.316;2023-03-31T17:12:50;14.82;;;6.55;;
75854;SDS011;64502;59.976;30.316;2023-03-31T17:15:16;14.90;;;6.72;;
75854;SDS011;64502;59.976;30.316;2023-03-31T17:17:42;14.32;;;6.32;;
75854;SDS011;64502;59.976;30.316;2023-03-31T17:20:07;14.93;;;6.88;;
75854;SDS011;64502;59.976;30.316;2023-03-31T17:22:34;10.95;;;5.88;;
75854;SDS011;64502;59.976;30.316;2023-03-31T17:25:00;13.82;;;6.35;;
75854;SDS011;64502;59.976;30.316;2023-03-31T17:27:26;13.23;;;6.10;;
75854;SDS011;64502;59.976;30.316;2023-03-31T17:29:53;12.52;;;6.28;;
75854;SDS011;64502;59.976;30.316;2023-03-31T17:32:18;12.93;;;5.65;;
75854;SDS011;64502;59.976;30.316;2023-03-31T17:34:44;13.23;;;6.00;;
75854;SDS011;64502;59.976;30.316;2023-03-31T17:37:13;13.98;;;6.20;;
75854;SDS011;64502;59.976;30.316;2023-03-31T17:39:40;13.20;;;4.90;;
75854;SDS011;64502;59.976;30.316;2023-03-31T17:42:07;13.80;;;6.50;;
75854;SDS011;64502;59.976;30.316;2023-03-31T17:44:32;12.20;;;5.88;;
75854;SDS011;64502;59.976;30.316;2023-03-31T17:46:58;11.68;;;5.45;;
75854;SDS011;64502;59.976;30.316;2023-03-31T17:49:23;14.50;;;6.05;;
75854;SDS011;64502;59.976;30.316;2023-03-31T17:51:50;13.15;;;5.78;;
75854;SDS011;64502;59.976;30.316;2023-03-31T17:54:17;15.13;;;5.82;;